sensor_id;sensor_type;location;lat;lon;timestamp;P1;durP1;ratioP1;P2;durP2;ratioP2
20557;SDS011;10437;48.156;11.530;2023-04-19T00:00:13;18.30;;;9.40;;
20557;SDS011;10437;48.156;11.530;2023-04-19T00:02:40;15.67;;;9.17;;
20557;SDS011;10437;48.156;11.530;2023-04-19T00:05:07;15.37;;;8.70;;
20557;SDS011;10437;48.156;11.530;2023-04-19T00:07:37;16.10;;;8.53;;
20557;SDS011;10437;48.156;11.530;2023-04-19T00:10:04;13.53;;;8.20;;
20557;SDS011;10437;48.156;11.530;2023-04-19T00:12:32;14.48;;;9.02;;
20557;SDS011;10437;48.156;11.530;2023-04-19T00:14:59;15.37;;;8.90;;
20557;SDS011;10437;48.156;11.530;2023-04-19T00:17:26;18.27;;;9.50;;
20557;SDS011;10437;48.156;11.530;2023-04-19T00:19:53;14.63;;;8.70;;
20557;SDS011;10437;48.156;11.530;2023-04-19T00:22:20;14.23;;;8.90;;
20557;SDS011;10437;48.156;11.530;2023-04-19T00:24:49;14.25;;;8.50;;
20557;SDS011;10437;48.156;11.530;2023-04-19T00:27:16;14.70;;;8.70;;
20557;SDS011;10437;48.156;11.530;2023-04-19T00:29:43;15.10;;;8.30;;
20557;SDS011;10437;48.156;11.530;2023-04-19T00:32:10;13.93;;;8.43;;
20557;SDS011;10437;48.156;11.530;2023-04-19T00:34:37;13.40;;;8.30;;
20557;SDS011;10437;48.156;11.530;2023-04-19T00:37:04;14.83;;;8.13;;
20557;SDS011;10437;48.156;11.530;2023-04-19T00:39:31;12.40;;;7.63;;
20557;SDS011;10437;48.156;11.530;2023-04-19T00:42:00;12.97;;;8.30;;
20557;SDS011;10437;48.156;11.530;2023-04-19T00:44:26;13.10;;;8.13;;
20557;SDS011;10437;48.156;11.530;2023-04-19T00:46:54;14.60;;;8.40;;
20557;SDS011;10437;48.156;11.530;2023-04-19T00:49:21;14.67;;;9.10;;
20557;SDS011;10437;48.156;11.530;2023-04-19T00:51:50;13.90;;;8.70;;
20557;SDS011;10437;48.156;11.530;2023-04-19T00:54:17;15.07;;;9.13;;
20557;SDS011;10437;48.156;11.530;2023-04-19T00:56:45;14.67;;;9.60;;
20557;SDS011;10437;48.156;11.530;2023-04-19T00:59:13;15.27;;;9.33;;
20557;SDS011;10437;48.156;11.530;2023-04-19T01:01:41;16.90;;;10.50;;
20557;SDS011;10437;48.156;11.530;2023-04-19T01:04:08;17.60;;;10.60;;
20557;SDS011;10437;48.156;11.530;2023-04-19T01:06:35;16.53;;;10.60;;
20557;SDS011;10437;48.156;11.530;2023-04-19T01:09:02;18.70;;;10.37;;
20557;SDS011;10437;48.156;11.530;2023-04-19T01:11:29;16.20;;;9.93;;
20557;SDS011;10437;48.156;11.530;2023-04-19T01:13:57;15.87;;;10.30;;
20557;SDS011;10437;48.156;11.530;2023-04-19T01:16:26;16.63;;;10.20;;
20557;SDS011;10437;48.156;11.530;2023-04-19T01:18:53;18.73;;;10.20;;
20557;SDS011;10437;48.156;11.530;2023-04-19T01:21:20;18.83;;;10.37;;
20557;SDS011;10437;48.156;11.530;2023-04-19T01:23:48;18.27;;;10.47;;
20557;SDS011;10437;48.156;11.530;2023-04-19T01:26:17;16.20;;;9.57;;
20557;SDS011;10437;48.156;11.530;2023-04-19T01:28:44;15.17;;;9.37;;
20557;SDS011;10437;48.156;11.530;2023-04-19T01:31:11;16.80;;;9.70;;
20557;SDS011;10437;48.156;11.530;2023-04-19T01:33:38;16.73;;;10.07;;
20557;SDS011;10437;48.156;11.530;2023-04-19T01:36:06;16.43;;;9.87;;
20557;SDS011;10437;48.156;11.530;2023-04-19T01:38:33;19.40;;;10.63;;
20557;SDS011;10437;48.156;11.530;2023-04-19T01:41:01;19.13;;;11.20;;
20557;SDS011;10437;48.156;11.530;2023-04-19T01:43:28;24.67;;;10.93;;
20557;SDS011;10437;48.156;11.530;2023-04-19T01:45:55;17.07;;;10.13;;
20557;SDS011;10437;48.156;11.530;2023-04-19T01:48:22;18.77;;;10.37;;
20557;SDS011;10437;48.156;11.530;2023-04-19T01:50:50;18.93;;;11.00;;
20557;SDS011;10437;48.156;11.530;2023-04-19T01:53:17;18.93;;;11.07;;
20557;SDS011;10437;48.156;11.530;2023-04-19T01:55:44;18.30;;;10.90;;
20557;SDS011;10437;48.156;11.530;2023-04-19T01:58:12;19.13;;;11.67;;
20557;SDS011;10437;48.156;11.530;2023-04-19T02:00:40;18.57;;;10.60;;
20557;SDS011;10437;48.156;11.530;2023-04-19T02:03:07;20.93;;;12.00;;
20557;SDS011;10437;48.156;11.530;2023-04-19T02:05:34;20.93;;;11.13;;
20557;SDS011;10437;48.156;11.530;2023-04-19T02:08:01;18.23;;;11.60;;
20557;SDS011;10437;48.156;11.530;2023-04-19T02:10:28;21.87;;;12.20;;
20557;SDS011;10437;48.156;11.530;2023-04-19T02:12:55;19.80;;;11.53;;
20557;SDS011;10437;48.156;11.530;2023-04-19T02:15:24;20.17;;;11.70;;
20557;SDS011;10437;48.156;11.530;2023-04-19T02:17:51;23.00;;;12.53;;
20557;SDS011;10437;48.156;11.530;2023-04-19T02:20:18;18.80;;;11.95;;
20557;SDS011;10437;48.156;11.530;2023-04-19T02:22:45;23.80;;;12.63;;
20557;SDS011;10437;48.156;11.530;2023-04-19T02:25:12;22.90;;;13.07;;
20557;SDS011;10437;48.156;11.530;2023-04-19T02:27:40;21.60;;;12.70;;
20557;SDS011;10437;48.156;11.530;2023-04-19T02:30:08;23.20;;;13.10;;
20557;SDS011;10437;48.156;11.530;2023-04-19T02:32:36;27.95;;;13.30;;
20557;SDS011;10437;48.156;11.530;2023-04-19T02:35:03;22.90;;;13.17;;
20557;SDS011;10437;48.156;11.530;2023-04-19T02:37:30;22.50;;;13.43;;
20557;SDS011;10437;48.156;11.530;2023-04-19T02:39:58;23.13;;;14.00;;
20557;SDS011;10437;48.156;11.530;2023-04-19T02:42:25;25.97;;;14.03;;
20557;SDS011;10437;48.156;11.530;2023-04-19T02:44:52;23.57;;;13.57;;
20557;SDS011;10437;48.156;11.530;2023-04-19T02:47:19;25.93;;;14.70;;
20557;SDS011;10437;48.156;11.530;2023-04-19T02:49:47;25.30;;;14.63;;
20557;SDS011;10437;48.156;11.530;2023-04-19T02:52:14;24.40;;;13.83;;
20557;SDS011;10437;48.156;11.530;2023-04-19T02:54:41;23.40;;;14.07;;
20557;SDS011;10437;48.156;11.530;2023-04-19T02:57:08;28.00;;;14.37;;
20557;SDS011;10437;48.156;11.530;2023-04-19T02:59:35;24.60;;;13.77;;
20557;SDS011;10437;48.156;11.530;2023-04-19T03:02:03;22.90;;;14.23;;
20557;SDS011;10437;48.156;11.530;2023-04-19T03:04:30;28.70;;;15.07;;
20557;SDS011;10437;48.156;11.530;2023-04-19T03:06:59;25.67;;;15.20;;
20557;SDS011;10437;48.156;11.530;2023-04-19T03:09:26;26.63;;;14.80;;
20557;SDS011;10437;48.156;11.530;2023-04-19T03:11:53;27.17;;;15.13;;
20557;SDS011;10437;48.156;11.530;2023-04-19T03:14:20;26.88;;;14.57;;
20557;SDS011;10437;48.156;11.530;2023-04-19T03:16:48;26.08;;;15.20;;
20557;SDS011;10437;48.156;11.530;2023-04-19T03:19:15;30.37;;;16.13;;
20557;SDS011;10437;48.156;11.530;2023-04-19T03:21:42;31.83;;;15.73;;
20557;SDS011;10437;48.156;11.530;2023-04-19T03:24:10;31.27;;;16.53;;
20557;SDS011;10437;48.156;11.530;2023-04-19T03:26:37;30.80;;;17.00;;
20557;SDS011;10437;48.156;11.530;2023-04-19T03:29:04;32.03;;;17.90;;
20557;SDS011;10437;48.156;11.530;2023-04-19T03:31:31;32.60;;;17.03;;
20557;SDS011;10437;48.156;11.530;2023-04-19T03:33:59;29.83;;;16.65;;
20557;SDS011;10437;48.156;11.530;2023-04-19T03:36:26;30.00;;;16.60;;
20557;SDS011;10437;48.156;11.530;2023-04-19T03:38:53;27.33;;;14.47;;
20557;SDS011;10437;48.156;11.530;2023-04-19T03:41:22;29.20;;;15.97;;
20557;SDS011;10437;48.156;11.530;2023-04-19T03:43:50;32.47;;;16.47;;
20557;SDS011;10437;48.156;11.530;2023-04-19T03:46:17;33.43;;;17.53;;
20557;SDS011;10437;48.156;11.530;2023-04-19T03:48:45;28.27;;;15.97;;
20557;SDS011;10437;48.156;11.530;2023-04-19T03:51:12;29.90;;;16.60;;
20557;SDS011;10437;48.156;11.530;2023-04-19T03:53:40;28.47;;;16.67;;
20557;SDS011;10437;48.156;11.530;2023-04-19T03:56:07;29.67;;;16.67;;
20557;SDS011;10437;48.156;11.530;2023-04-19T03:58:35;28.67;;;16.40;;
20557;SDS011;10437;48.156;11.530;2023-04-19T04:01:02;30.20;;;16.10;;
20557;SDS011;10437;48.156;11.530;2023-04-19T04:03:30;27.13;;;15.57;;
20557;SDS011;10437;48.156;11.530;2023-04-19T04:05:57;29.70;;;17.10;;
20557;SDS011;10437;48.156;11.530;2023-04-19T04:08:25;32.20;;;16.60;;
20557;SDS011;10437;48.156;11.530;2023-04-19T04:10:52;28.70;;;16.70;;
20557;SDS011;10437;48.156;11.530;2023-04-19T04:13:19;31.77;;;16.63;;
20557;SDS011;10437;48.156;11.530;2023-04-19T04:15:48;30.33;;;16.40;;
20557;SDS011;10437;48.156;11.530;2023-04-19T04:18:14;32.97;;;17.97;;
20557;SDS011;10437;48.156;11.530;2023-04-19T04:20:42;37.20;;;17.23;;
20557;SDS011;10437;48.156;11.530;2023-04-19T04:23:09;30.53;;;16.23;;
20557;SDS011;10437;48.156;11.530;2023-04-19T04:25:36;34.07;;;17.90;;
20557;SDS011;10437;48.156;11.530;2023-04-19T04:28:03;32.03;;;16.83;;
20557;SDS011;10437;48.156;11.530;2023-04-19T04:30:31;29.70;;;16.60;;
20557;SDS011;10437;48.156;11.530;2023-04-19T04:32:59;29.87;;;16.63;;
20557;SDS011;10437;48.156;11.530;2023-04-19T04:35:26;30.63;;;17.40;;
20557;SDS011;10437;48.156;11.530;2023-04-19T04:37:54;31.27;;;17.33;;
20557;SDS011;10437;48.156;11.530;2023-04-19T04:40:21;33.13;;;17.33;;
20557;SDS011;10437;48.156;11.530;2023-04-19T04:42:49;31.83;;;16.80;;
20557;SDS011;10437;48.156;11.530;2023-04-19T04:45:16;40.03;;;21.23;;
20557;SDS011;10437;48.156;11.530;2023-04-19T04:47:44;42.47;;;23.80;;
20557;SDS011;10437;48.156;11.530;2023-04-19T04:50:12;31.10;;;17.27;;
20557;SDS011;10437;48.156;11.530;2023-04-19T04:52:39;31.53;;;16.70;;
20557;SDS011;10437;48.156;11.530;2023-04-19T04:55:07;31.33;;;16.47;;
20557;SDS011;10437;48.156;11.530;2023-04-19T04:57:35;29.83;;;16.50;;
20557;SDS011;10437;48.156;11.530;2023-04-19T05:00:02;29.87;;;16.63;;
20557;SDS011;10437;48.156;11.530;2023-04-19T05:02:30;30.75;;;17.25;;
20557;SDS011;10437;48.156;11.530;2023-04-19T05:04:57;30.30;;;16.83;;
20557;SDS011;10437;48.156;11.530;2023-04-19T05:07:26;31.33;;;17.00;;
20557;SDS011;10437;48.156;11.530;2023-04-19T05:09:53;31.27;;;16.77;;
20557;SDS011;10437;48.156;11.530;2023-04-19T05:12:20;30.80;;;16.57;;
20557;SDS011;10437;48.156;11.530;2023-04-19T05:14:47;31.43;;;16.97;;
20557;SDS011;10437;48.156;11.530;2023-04-19T05:17:14;30.10;;;16.00;;
20557;SDS011;10437;48.156;11.530;2023-04-19T05:19:41;31.07;;;17.20;;
20557;SDS011;10437;48.156;11.530;2023-04-19T05:22:09;33.63;;;16.10;;
20557;SDS011;10437;48.156;11.530;2023-04-19T05:24:37;34.00;;;16.43;;
20557;SDS011;10437;48.156;11.530;2023-04-19T05:27:04;35.27;;;17.83;;
20557;SDS011;10437;48.156;11.530;2023-04-19T05:29:31;36.37;;;18.17;;
20557;SDS011;10437;48.156;11.530;2023-04-19T05:31:58;29.13;;;17.27;;
20557;SDS011;10437;48.156;11.530;2023-04-19T05:34:26;31.97;;;16.83;;
20557;SDS011;10437;48.156;11.530;2023-04-19T05:36:53;31.50;;;16.20;;
20557;SDS011;10437;48.156;11.530;2023-04-19T05:39:20;29.80;;;16.90;;
20557;SDS011;10437;48.156;11.530;2023-04-19T05:41:48;28.60;;;15.60;;
20557;SDS011;10437;48.156;11.530;2023-04-19T05:44:15;33.87;;;17.00;;
20557;SDS011;10437;48.156;11.530;2023-04-19T05:46:43;33.67;;;16.73;;
20557;SDS011;10437;48.156;11.530;2023-04-19T05:49:11;29.30;;;16.43;;
20557;SDS011;10437;48.156;11.530;2023-04-19T05:51:38;28.10;;;15.50;;
20557;SDS011;10437;48.156;11.530;2023-04-19T05:54:05;32.10;;;16.30;;
20557;SDS011;10437;48.156;11.530;2023-04-19T05:56:36;28.27;;;16.03;;
20557;SDS011;10437;48.156;11.530;2023-04-19T05:59:04;32.47;;;15.80;;
20557;SDS011;10437;48.156;11.530;2023-04-19T06:01:32;32.77;;;16.93;;
20557;SDS011;10437;48.156;11.530;2023-04-19T06:03:59;35.90;;;16.50;;
20557;SDS011;10437;48.156;11.530;2023-04-19T06:06:27;32.73;;;16.40;;
20557;SDS011;10437;48.156;11.530;2023-04-19T06:08:54;29.57;;;16.67;;
20557;SDS011;10437;48.156;11.530;2023-04-19T06:11:21;31.07;;;16.53;;
20557;SDS011;10437;48.156;11.530;2023-04-19T06:13:48;29.00;;;16.07;;
20557;SDS011;10437;48.156;11.530;2023-04-19T06:16:17;31.33;;;16.40;;
20557;SDS011;10437;48.156;11.530;2023-04-19T06:18:44;30.67;;;15.40;;
20557;SDS011;10437;48.156;11.530;2023-04-19T06:21:11;29.27;;;15.43;;
20557;SDS011;10437;48.156;11.530;2023-04-19T06:23:39;31.23;;;16.30;;
20557;SDS011;10437;48.156;11.530;2023-04-19T06:26:06;32.13;;;16.57;;
20557;SDS011;10437;48.156;11.530;2023-04-19T06:28:33;30.80;;;15.27;;
20557;SDS011;10437;48.156;11.530;2023-04-19T06:31:00;31.43;;;15.77;;
20557;SDS011;10437;48.156;11.530;2023-04-19T06:33:29;33.07;;;15.73;;
20557;SDS011;10437;48.156;11.530;2023-04-19T06:35:56;31.90;;;15.63;;
20557;SDS011;10437;48.156;11.530;2023-04-19T06:38:23;33.23;;;15.87;;
20557;SDS011;10437;48.156;11.530;2023-04-19T06:40:50;33.63;;;16.63;;
20557;SDS011;10437;48.156;11.530;2023-04-19T06:43:17;31.10;;;15.80;;
20557;SDS011;10437;48.156;11.530;2023-04-19T06:45:45;35.80;;;16.53;;
20557;SDS011;10437;48.156;11.530;2023-04-19T06:48:12;28.60;;;15.23;;
20557;SDS011;10437;48.156;11.530;2023-04-19T06:50:41;30.77;;;15.43;;
20557;SDS011;10437;48.156;11.530;2023-04-19T06:53:07;30.77;;;15.23;;
20557;SDS011;10437;48.156;11.530;2023-04-19T06:55:35;37.77;;;15.67;;
20557;SDS011;10437;48.156;11.530;2023-04-19T06:58:02;32.20;;;16.67;;
20557;SDS011;10437;48.156;11.530;2023-04-19T07:00:31;31.73;;;15.20;;
20557;SDS011;10437;48.156;11.530;2023-04-19T07:02:58;33.77;;;15.67;;
20557;SDS011;10437;48.156;11.530;2023-04-19T07:05:26;32.40;;;15.53;;
20557;SDS011;10437;48.156;11.530;2023-04-19T07:07:54;31.43;;;15.73;;
20557;SDS011;10437;48.156;11.530;2023-04-19T07:10:21;32.10;;;15.60;;
20557;SDS011;10437;48.156;11.530;2023-04-19T07:12:49;30.50;;;15.53;;
20557;SDS011;10437;48.156;11.530;2023-04-19T07:15:16;32.23;;;15.40;;
20557;SDS011;10437;48.156;11.530;2023-04-19T07:17:44;35.27;;;15.60;;
20557;SDS011;10437;48.156;11.530;2023-04-19T07:20:11;27.93;;;15.33;;
20557;SDS011;10437;48.156;11.530;2023-04-19T07:22:40;30.13;;;15.47;;
20557;SDS011;10437;48.156;11.530;2023-04-19T07:25:09;31.13;;;15.60;;
20557;SDS011;10437;48.156;11.530;2023-04-19T07:27:36;29.25;;;15.20;;
20557;SDS011;10437;48.156;11.530;2023-04-19T07:30:05;31.80;;;16.17;;
20557;SDS011;10437;48.156;11.530;2023-04-19T07:32:33;31.37;;;15.30;;
20557;SDS011;10437;48.156;11.530;2023-04-19T07:35:00;29.67;;;14.67;;
20557;SDS011;10437;48.156;11.530;2023-04-19T07:37:27;28.77;;;15.13;;
20557;SDS011;10437;48.156;11.530;2023-04-19T07:39:55;32.93;;;14.50;;
20557;SDS011;10437;48.156;11.530;2023-04-19T07:42:23;28.20;;;14.32;;
20557;SDS011;10437;48.156;11.530;2023-04-19T07:44:50;29.57;;;15.17;;
20557;SDS011;10437;48.156;11.530;2023-04-19T07:47:18;27.33;;;14.83;;
20557;SDS011;10437;48.156;11.530;2023-04-19T07:49:45;28.43;;;14.77;;
20557;SDS011;10437;48.156;11.530;2023-04-19T07:52:12;29.60;;;14.30;;
20557;SDS011;10437;48.156;11.530;2023-04-19T07:54:39;25.90;;;13.87;;
20557;SDS011;10437;48.156;11.530;2023-04-19T07:57:06;29.93;;;15.23;;
20557;SDS011;10437;48.156;11.530;2023-04-19T07:59:35;29.63;;;13.68;;
20557;SDS011;10437;48.156;11.530;2023-04-19T08:02:02;28.90;;;14.30;;
20557;SDS011;10437;48.156;11.530;2023-04-19T08:04:30;28.83;;;14.70;;
20557;SDS011;10437;48.156;11.530;2023-04-19T08:06:57;28.93;;;13.57;;
20557;SDS011;10437;48.156;11.530;2023-04-19T08:09:24;29.08;;;14.65;;
20557;SDS011;10437;48.156;11.530;2023-04-19T08:11:51;34.17;;;15.17;;
20557;SDS011;10437;48.156;11.530;2023-04-19T08:14:18;27.25;;;14.32;;
20557;SDS011;10437;48.156;11.530;2023-04-19T08:16:47;31.40;;;15.07;;
20557;SDS011;10437;48.156;11.530;2023-04-19T08:19:13;34.35;;;15.70;;
20557;SDS011;10437;48.156;11.530;2023-04-19T08:21:41;29.45;;;14.95;;
20557;SDS011;10437;48.156;11.530;2023-04-19T08:24:08;28.33;;;14.52;;
20557;SDS011;10437;48.156;11.530;2023-04-19T08:26:35;29.10;;;15.20;;
20557;SDS011;10437;48.156;11.530;2023-04-19T08:29:03;28.80;;;14.90;;
20557;SDS011;10437;48.156;11.530;2023-04-19T08:31:30;28.10;;;14.00;;
20557;SDS011;10437;48.156;11.530;2023-04-19T08:33:58;26.37;;;14.27;;
20557;SDS011;10437;48.156;11.530;2023-04-19T08:36:26;27.50;;;14.85;;
20557;SDS011;10437;48.156;11.530;2023-04-19T08:38:54;25.33;;;14.13;;
20557;SDS011;10437;48.156;11.530;2023-04-19T08:41:21;28.25;;;14.45;;
20557;SDS011;10437;48.156;11.530;2023-04-19T08:43:50;27.60;;;14.23;;
20557;SDS011;10437;48.156;11.530;2023-04-19T08:46:18;30.38;;;14.98;;
20557;SDS011;10437;48.156;11.530;2023-04-19T08:48:47;28.42;;;14.65;;
20557;SDS011;10437;48.156;11.530;2023-04-19T08:51:18;27.50;;;13.82;;
20557;SDS011;10437;48.156;11.530;2023-04-19T08:53:46;28.30;;;14.60;;
20557;SDS011;10437;48.156;11.530;2023-04-19T08:56:14;26.50;;;14.50;;
20557;SDS011;10437;48.156;11.530;2023-04-19T08:58:41;25.95;;;13.73;;
20557;SDS011;10437;48.156;11.530;2023-04-19T09:01:08;23.98;;;12.20;;
20557;SDS011;10437;48.156;11.530;2023-04-19T09:03:41;25.20;;;13.23;;
20557;SDS011;10437;48.156;11.530;2023-04-19T09:06:09;23.58;;;12.25;;
20557;SDS011;10437;48.156;11.530;2023-04-19T09:08:38;26.63;;;14.10;;
20557;SDS011;10437;48.156;11.530;2023-04-19T09:11:06;26.95;;;13.85;;
20557;SDS011;10437;48.156;11.530;2023-04-19T09:13:33;24.42;;;12.50;;
20557;SDS011;10437;48.156;11.530;2023-04-19T09:16:02;24.80;;;13.45;;
20557;SDS011;10437;48.156;11.530;2023-04-19T09:18:29;26.40;;;12.80;;
20557;SDS011;10437;48.156;11.530;2023-04-19T09:20:56;23.73;;;11.88;;
20557;SDS011;10437;48.156;11.530;2023-04-19T09:23:25;25.95;;;12.40;;
20557;SDS011;10437;48.156;11.530;2023-04-19T09:25:55;21.27;;;10.82;;
20557;SDS011;10437;48.156;11.530;2023-04-19T09:28:24;20.42;;;10.88;;
20557;SDS011;10437;48.156;11.530;2023-04-19T09:30:52;20.73;;;11.57;;
20557;SDS011;10437;48.156;11.530;2023-04-19T09:33:32;22.95;;;12.38;;
20557;SDS011;10437;48.156;11.530;2023-04-19T09:36:00;24.45;;;12.98;;
20557;SDS011;10437;48.156;11.530;2023-04-19T09:38:28;26.33;;;12.88;;
20557;SDS011;10437;48.156;11.530;2023-04-19T09:41:06;22.55;;;12.15;;
20557;SDS011;10437;48.156;11.530;2023-04-19T09:43:34;24.40;;;13.20;;
20557;SDS011;10437;48.156;11.530;2023-04-19T09:46:01;20.30;;;12.27;;
20557;SDS011;10437;48.156;11.530;2023-04-19T09:48:28;24.40;;;12.27;;
20557;SDS011;10437;48.156;11.530;2023-04-19T09:50:56;24.23;;;12.63;;
20557;SDS011;10437;48.156;11.530;2023-04-19T09:53:25;23.67;;;12.48;;
20557;SDS011;10437;48.156;11.530;2023-04-19T09:55:52;23.92;;;13.05;;
20557;SDS011;10437;48.156;11.530;2023-04-19T09:58:21;25.70;;;12.88;;
20557;SDS011;10437;48.156;11.530;2023-04-19T10:00:48;25.52;;;12.65;;
20557;SDS011;10437;48.156;11.530;2023-04-19T10:03:17;25.63;;;13.32;;
20557;SDS011;10437;48.156;11.530;2023-04-19T10:05:45;23.85;;;12.13;;
20557;SDS011;10437;48.156;11.530;2023-04-19T10:08:13;22.77;;;12.20;;
20557;SDS011;10437;48.156;11.530;2023-04-19T10:10:40;23.75;;;12.75;;
20557;SDS011;10437;48.156;11.530;2023-04-19T10:13:07;19.92;;;12.13;;
20557;SDS011;10437;48.156;11.530;2023-04-19T10:15:40;26.90;;;13.50;;
20557;SDS011;10437;48.156;11.530;2023-04-19T10:18:07;23.33;;;12.73;;
20557;SDS011;10437;48.156;11.530;2023-04-19T10:20:36;24.48;;;13.38;;
20557;SDS011;10437;48.156;11.530;2023-04-19T10:23:07;25.42;;;13.18;;
20557;SDS011;10437;48.156;11.530;2023-04-19T10:25:35;24.30;;;13.27;;
20557;SDS011;10437;48.156;11.530;2023-04-19T10:28:03;23.40;;;12.90;;
20557;SDS011;10437;48.156;11.530;2023-04-19T10:30:31;19.27;;;12.05;;
20557;SDS011;10437;48.156;11.530;2023-04-19T10:32:59;23.48;;;11.85;;
20557;SDS011;10437;48.156;11.530;2023-04-19T10:35:32;22.13;;;11.98;;
20557;SDS011;10437;48.156;11.530;2023-04-19T10:38:05;22.60;;;12.27;;
20557;SDS011;10437;48.156;11.530;2023-04-19T10:43:24;23.83;;;13.05;;
20557;SDS011;10437;48.156;11.530;2023-04-19T10:45:52;23.20;;;12.93;;
20557;SDS011;10437;48.156;11.530;2023-04-19T10:48:40;21.00;;;12.27;;
20557;SDS011;10437;48.156;11.530;2023-04-19T10:51:17;23.63;;;12.52;;
20557;SDS011;10437;48.156;11.530;2023-04-19T10:53:46;22.45;;;11.20;;
20557;SDS011;10437;48.156;11.530;2023-04-19T10:56:15;19.70;;;11.27;;
20557;SDS011;10437;48.156;11.530;2023-04-19T11:01:51;20.05;;;11.40;;
20557;SDS011;10437;48.156;11.530;2023-04-19T11:04:24;21.45;;;11.18;;
20557;SDS011;10437;48.156;11.530;2023-04-19T11:07:25;21.55;;;10.80;;
20557;SDS011;10437;48.156;11.530;2023-04-19T11:09:53;22.27;;;11.68;;
20557;SDS011;10437;48.156;11.530;2023-04-19T11:12:20;22.48;;;12.00;;
20557;SDS011;10437;48.156;11.530;2023-04-19T11:14:48;22.27;;;12.65;;
20557;SDS011;10437;48.156;11.530;2023-04-19T11:17:18;22.30;;;11.45;;
20557;SDS011;10437;48.156;11.530;2023-04-19T11:19:51;20.83;;;11.32;;
20557;SDS011;10437;48.156;11.530;2023-04-19T11:22:23;23.05;;;12.45;;
20557;SDS011;10437;48.156;11.530;2023-04-19T11:24:55;20.67;;;11.73;;
20557;SDS011;10437;48.156;11.530;2023-04-19T11:27:22;22.52;;;11.23;;
20557;SDS011;10437;48.156;11.530;2023-04-19T11:29:49;21.15;;;11.90;;
20557;SDS011;10437;48.156;11.530;2023-04-19T11:32:19;28.10;;;12.27;;
20557;SDS011;10437;48.156;11.530;2023-04-19T11:34:46;26.40;;;12.80;;
20557;SDS011;10437;48.156;11.530;2023-04-19T11:37:13;23.30;;;12.40;;
20557;SDS011;10437;48.156;11.530;2023-04-19T11:39:45;22.77;;;12.18;;
20557;SDS011;10437;48.156;11.530;2023-04-19T11:42:16;24.90;;;13.13;;
20557;SDS011;10437;48.156;11.530;2023-04-19T11:44:47;25.00;;;13.35;;
20557;SDS011;10437;48.156;11.530;2023-04-19T11:47:14;27.20;;;13.40;;
20557;SDS011;10437;48.156;11.530;2023-04-19T11:49:42;26.05;;;14.15;;
20557;SDS011;10437;48.156;11.530;2023-04-19T11:52:09;25.40;;;14.15;;
20557;SDS011;10437;48.156;11.530;2023-04-19T11:54:36;29.80;;;13.80;;
20557;SDS011;10437;48.156;11.530;2023-04-19T11:57:05;30.70;;;14.95;;
20557;SDS011;10437;48.156;11.530;2023-04-19T11:59:34;25.80;;;14.38;;
20557;SDS011;10437;48.156;11.530;2023-04-19T12:02:07;25.17;;;13.73;;
20557;SDS011;10437;48.156;11.530;2023-04-19T12:04:35;26.63;;;14.63;;
20557;SDS011;10437;48.156;11.530;2023-04-19T12:07:03;31.98;;;16.13;;
20557;SDS011;10437;48.156;11.530;2023-04-19T12:09:32;31.70;;;15.85;;
20557;SDS011;10437;48.156;11.530;2023-04-19T12:11:59;30.40;;;16.08;;
20557;SDS011;10437;48.156;11.530;2023-04-19T12:14:30;33.28;;;16.30;;
20557;SDS011;10437;48.156;11.530;2023-04-19T12:17:07;30.33;;;15.38;;
20557;SDS011;10437;48.156;11.530;2023-04-19T12:19:35;31.17;;;15.82;;
20557;SDS011;10437;48.156;11.530;2023-04-19T12:22:07;31.00;;;16.52;;
20557;SDS011;10437;48.156;11.530;2023-04-19T12:24:35;32.03;;;16.90;;
20557;SDS011;10437;48.156;11.530;2023-04-19T12:27:03;31.05;;;17.15;;
20557;SDS011;10437;48.156;11.530;2023-04-19T12:29:32;32.53;;;16.73;;
20557;SDS011;10437;48.156;11.530;2023-04-19T12:31:59;33.15;;;17.38;;
20557;SDS011;10437;48.156;11.530;2023-04-19T12:34:26;30.58;;;16.77;;
20557;SDS011;10437;48.156;11.530;2023-04-19T12:36:53;28.70;;;14.38;;
20557;SDS011;10437;48.156;11.530;2023-04-19T12:39:20;27.73;;;13.55;;
20557;SDS011;10437;48.156;11.530;2023-04-19T12:41:47;25.45;;;13.93;;
20557;SDS011;10437;48.156;11.530;2023-04-19T12:44:15;28.45;;;13.77;;
20557;SDS011;10437;48.156;11.530;2023-04-19T12:46:43;23.45;;;12.95;;
20557;SDS011;10437;48.156;11.530;2023-04-19T12:49:10;26.55;;;12.98;;
20557;SDS011;10437;48.156;11.530;2023-04-19T12:51:37;22.05;;;12.30;;
20557;SDS011;10437;48.156;11.530;2023-04-19T12:54:06;29.92;;;13.57;;
20557;SDS011;10437;48.156;11.530;2023-04-19T12:56:33;28.88;;;14.50;;
20557;SDS011;10437;48.156;11.530;2023-04-19T12:59:00;27.00;;;14.32;;
20557;SDS011;10437;48.156;11.530;2023-04-19T13:01:27;23.45;;;13.52;;
20557;SDS011;10437;48.156;11.530;2023-04-19T13:03:57;24.45;;;12.88;;
20557;SDS011;10437;48.156;11.530;2023-04-19T13:06:24;22.40;;;13.32;;
20557;SDS011;10437;48.156;11.530;2023-04-19T13:08:51;22.10;;;12.02;;
20557;SDS011;10437;48.156;11.530;2023-04-19T13:11:20;22.25;;;10.88;;
20557;SDS011;10437;48.156;11.530;2023-04-19T13:13:50;19.70;;;10.70;;
20557;SDS011;10437;48.156;11.530;2023-04-19T13:16:20;20.08;;;10.52;;
20557;SDS011;10437;48.156;11.530;2023-04-19T13:18:47;19.65;;;11.52;;
20557;SDS011;10437;48.156;11.530;2023-04-19T13:21:16;19.50;;;10.60;;
20557;SDS011;10437;48.156;11.530;2023-04-19T13:23:43;19.98;;;10.98;;
20557;SDS011;10437;48.156;11.530;2023-04-19T13:26:10;18.50;;;9.85;;
20557;SDS011;10437;48.156;11.530;2023-04-19T13:28:37;14.50;;;8.35;;
20557;SDS011;10437;48.156;11.530;2023-04-19T13:31:05;14.90;;;8.70;;
20557;SDS011;10437;48.156;11.530;2023-04-19T13:33:32;16.13;;;7.97;;
20557;SDS011;10437;48.156;11.530;2023-04-19T13:35:59;15.07;;;8.20;;
20557;SDS011;10437;48.156;11.530;2023-04-19T13:38:27;14.60;;;7.83;;
20557;SDS011;10437;48.156;11.530;2023-04-19T13:40:54;13.40;;;6.70;;
20557;SDS011;10437;48.156;11.530;2023-04-19T13:43:22;16.60;;;8.03;;
20557;SDS011;10437;48.156;11.530;2023-04-19T13:45:49;15.07;;;8.02;;
20557;SDS011;10437;48.156;11.530;2023-04-19T13:48:16;12.90;;;7.47;;
20557;SDS011;10437;48.156;11.530;2023-04-19T13:50:43;14.67;;;7.83;;
20557;SDS011;10437;48.156;11.530;2023-04-19T13:53:10;12.68;;;6.47;;
20557;SDS011;10437;48.156;11.530;2023-04-19T13:55:39;8.43;;;4.88;;
20557;SDS011;10437;48.156;11.530;2023-04-19T13:58:06;8.53;;;4.73;;
20557;SDS011;10437;48.156;11.530;2023-04-19T14:00:33;8.07;;;4.38;;
20557;SDS011;10437;48.156;11.530;2023-04-19T14:03:00;8.32;;;4.32;;
20557;SDS011;10437;48.156;11.530;2023-04-19T14:05:28;6.72;;;4.55;;
20557;SDS011;10437;48.156;11.530;2023-04-19T14:07:55;12.17;;;5.93;;
20557;SDS011;10437;48.156;11.530;2023-04-19T14:10:22;10.07;;;5.05;;
20557;SDS011;10437;48.156;11.530;2023-04-19T14:12:53;7.17;;;4.30;;
20557;SDS011;10437;48.156;11.530;2023-04-19T14:15:20;5.10;;;3.03;;
20557;SDS011;10437;48.156;11.530;2023-04-19T14:17:49;6.37;;;2.40;;
20557;SDS011;10437;48.156;11.530;2023-04-19T14:20:16;4.63;;;2.47;;